createdAt,value
2022-12-06T00:00:35.634Z,105.60
2022-12-06T00:03:05.414Z,105.28
2022-12-06T00:05:46.016Z,104.75
2022-12-06T00:08:16.612Z,96.07
2022-12-06T00:10:47.147Z,101.68
2022-12-06T00:13:16.156Z,102.53
2022-12-06T00:15:43.454Z,108.38
2022-12-06T00:18:11.480Z,117.38
2022-12-06T00:20:39.460Z,109.65
2022-12-06T00:23:07.509Z,105.28
2022-12-06T00:25:38.473Z,98.70
2022-12-06T00:28:06.523Z,104.88
2022-12-06T00:30:35.837Z,108.93
2022-12-06T00:33:07.223Z,103.30
2022-12-06T00:35:35.833Z,103.53
2022-12-06T00:38:06.029Z,112.57
2022-12-06T00:40:36.915Z,105.53
2022-12-06T00:43:05.189Z,99.80
2022-12-06T00:45:33.260Z,94.90
2022-12-06T00:48:00.911Z,95.70
2022-12-06T00:50:29.720Z,102.45
2022-12-06T00:52:57.728Z,105.55
2022-12-06T00:55:25.752Z,92.65
2022-12-06T00:57:55.876Z,91.32
2022-12-06T01:00:26.008Z,92.43
2022-12-06T01:02:59.030Z,100.45
2022-12-06T01:05:28.298Z,104.85
2022-12-06T01:07:57.454Z,100.80
2022-12-06T01:10:26.437Z,102.57
2022-12-06T01:12:54.401Z,99.55
2022-12-06T01:15:27.581Z,104.28
2022-12-06T01:17:55.672Z,106.90
2022-12-06T01:20:24.250Z,103.88
2022-12-06T01:22:54.791Z,100.07
2022-12-06T01:25:25.874Z,107.13
2022-12-06T01:27:59.434Z,95.25
2022-12-06T01:30:27.686Z,97.60
2022-12-06T01:32:56.361Z,98.88
2022-12-06T01:35:27.552Z,99.75
2022-12-06T01:38:06.001Z,98.50
2022-12-06T01:40:47.183Z,92.00
2022-12-06T01:43:41.066Z,95.82
2022-12-06T01:46:41.977Z,89.68
2022-12-06T01:49:21.496Z,87.68
2022-12-06T01:52:05.888Z,86.70
2022-12-06T01:54:34.122Z,98.15
2022-12-06T01:57:05.709Z,89.55
2022-12-06T01:59:37.288Z,107.60
2022-12-06T02:02:08.684Z,92.78
2022-12-06T02:04:38.048Z,96.53
2022-12-06T02:07:06.454Z,90.90
2022-12-06T02:09:35.323Z,96.45
2022-12-06T02:12:03.282Z,100.18
2022-12-06T02:14:36.929Z,91.43
2022-12-06T02:17:47.633Z,98.13
2022-12-06T02:20:57.776Z,97.95
2022-12-06T02:24:04.155Z,105.70
2022-12-06T02:26:39.912Z,106.00
2022-12-06T02:29:29.126Z,104.63
2022-12-06T02:32:21.950Z,99.50
2022-12-06T02:35:06.338Z,105.47
2022-12-06T02:37:57.106Z,99.35
2022-12-06T02:40:33.073Z,108.32
2022-12-06T02:43:20.284Z,106.88
2022-12-06T02:45:56.773Z,106.57
2022-12-06T02:48:27.900Z,108.55
2022-12-06T02:51:16.576Z,105.95
2022-12-06T02:53:52.213Z,106.80
2022-12-06T02:56:20.376Z,109.57
2022-12-06T02:58:48.518Z,109.53
2022-12-06T03:01:20.859Z,106.60
2022-12-06T03:07:01.155Z,97.05
2022-12-06T03:10:03.507Z,109.78
2022-12-06T03:12:53.056Z,102.95
2022-12-06T03:16:09.895Z,96.03
2022-12-06T03:18:54.447Z,104.15
2022-12-06T03:21:30.859Z,101.88
2022-12-06T03:24:02.555Z,104.38
2022-12-06T03:26:44.021Z,105.90
2022-12-06T03:29:15.959Z,109.32
2022-12-06T03:31:46.605Z,105.63
2022-12-06T03:34:32.289Z,99.07
2022-12-06T03:37:10.018Z,95.90
2022-12-06T03:40:03.414Z,93.10
2022-12-06T03:42:35.457Z,99.38
2022-12-06T03:45:05.767Z,104.50
2022-12-06T03:48:03.515Z,108.55
2022-12-06T03:50:41.674Z,107.47
2022-12-06T03:53:09.943Z,99.03
2022-12-06T03:55:37.610Z,112.25
2022-12-06T03:58:05.562Z,110.07
2022-12-06T04:00:33.133Z,104.20
2022-12-06T04:03:02.823Z,111.00
2022-12-06T04:05:36.068Z,108.82
2022-12-06T04:10:32.065Z,107.15
2022-12-06T04:13:02.884Z,100.55
2022-12-06T04:15:45.161Z,101.63
2022-12-06T04:18:14.753Z,102.85
2022-12-06T04:21:16.526Z,103.45
2022-12-06T04:23:49.528Z,105.20
2022-12-06T04:26:21.270Z,108.63
2022-12-06T04:29:09.048Z,111.18
2022-12-06T04:31:57.048Z,99.22
2022-12-06T04:34:45.991Z,111.78
2022-12-06T04:37:32.131Z,104.28
2022-12-06T04:39:59.718Z,108.35
2022-12-06T04:42:48.376Z,119.82
2022-12-06T04:45:16.045Z,113.95
2022-12-06T04:47:43.326Z,110.85
2022-12-06T04:50:11.177Z,121.28
2022-12-06T04:52:38.827Z,124.10
2022-12-06T04:55:06.564Z,122.60
2022-12-06T04:57:36.757Z,116.72
2022-12-06T05:00:08.108Z,119.45
2022-12-06T05:02:35.534Z,123.03
2022-12-06T05:05:05.412Z,128.10
2022-12-06T05:07:35.556Z,122.20
2022-12-06T05:10:03.227Z,116.80
2022-12-06T05:12:37.776Z,119.93
2022-12-06T05:15:05.670Z,127.75
2022-12-06T05:17:33.264Z,117.38
2022-12-06T05:20:00.752Z,126.28
2022-12-06T05:22:33.324Z,124.10
2022-12-06T05:25:03.010Z,125.15
2022-12-06T05:27:35.698Z,122.70
2022-12-06T05:30:03.701Z,116.30
2022-12-06T05:32:33.094Z,111.35
2022-12-06T05:35:00.551Z,105.30
2022-12-06T05:37:30.160Z,109.05
2022-12-06T05:39:59.718Z,106.75
2022-12-06T05:42:28.423Z,111.90
2022-12-06T05:44:55.673Z,107.38
2022-12-06T05:47:22.922Z,121.43
2022-12-06T05:49:51.305Z,119.75
2022-12-06T05:52:18.505Z,118.63
2022-12-06T05:54:45.727Z,112.43
2022-12-06T05:57:15.050Z,124.68
2022-12-06T05:59:42.201Z,118.00
2022-12-06T06:02:09.687Z,120.00
2022-12-06T06:04:36.993Z,124.90
2022-12-06T06:07:05.510Z,120.90
2022-12-06T06:09:32.709Z,123.25
2022-12-06T06:12:00.106Z,129.88
2022-12-06T06:14:27.338Z,122.22
2022-12-06T06:16:59.332Z,117.55
2022-12-06T06:19:26.627Z,121.03
2022-12-06T06:21:53.730Z,122.95
2022-12-06T06:24:20.924Z,111.10
2022-12-06T06:26:50.120Z,118.70
2022-12-06T06:29:17.213Z,115.20
2022-12-06T06:31:46.874Z,112.45
2022-12-06T06:34:24.881Z,112.05
2022-12-06T06:36:52.753Z,123.90
2022-12-06T06:39:20.012Z,118.57
2022-12-06T06:41:47.203Z,119.18
2022-12-06T06:44:16.711Z,123.70
2022-12-06T06:46:44.183Z,117.97
2022-12-06T06:49:15.822Z,119.55
2022-12-06T06:51:43.486Z,115.32
2022-12-06T06:54:11.073Z,118.00
2022-12-06T06:56:40.603Z,120.30
2022-12-06T06:59:12.930Z,130.30
2022-12-06T07:01:40.203Z,133.57
2022-12-06T07:04:07.336Z,126.13
2022-12-06T07:06:34.444Z,123.88
2022-12-06T07:09:01.589Z,123.10
2022-12-06T07:11:31.293Z,121.05
2022-12-06T07:14:01.126Z,128.27
2022-12-06T07:16:28.585Z,125.65
2022-12-06T07:18:55.955Z,131.15
2022-12-06T07:21:25.129Z,128.90
2022-12-06T07:23:52.504Z,123.68
2022-12-06T07:26:23.128Z,130.18
2022-12-06T07:28:53.814Z,119.03
2022-12-06T07:31:28.540Z,119.35
2022-12-06T07:33:59.360Z,114.97
2022-12-06T07:36:35.921Z,85.93
2022-12-06T07:39:18.265Z,91.52
2022-12-06T07:42:04.232Z,114.65
2022-12-06T07:44:50.251Z,118.97
2022-12-06T07:47:17.354Z,116.45
2022-12-06T07:49:45.718Z,110.25
2022-12-06T07:52:12.981Z,110.53
2022-12-06T07:54:41.687Z,104.78
2022-12-06T07:57:11.149Z,108.82
2022-12-06T07:59:40.681Z,107.18
2022-12-06T08:02:20.198Z,107.55
2022-12-06T08:04:47.621Z,110.05
2022-12-06T08:07:15.404Z,117.35
2022-12-06T08:09:45.705Z,111.60
2022-12-06T08:12:12.974Z,113.25
2022-12-06T08:14:42.651Z,129.57
2022-12-06T08:17:09.863Z,124.57
2022-12-06T08:19:36.954Z,134.40
2022-12-06T08:22:05.110Z,127.22
2022-12-06T08:24:32.260Z,128.15
2022-12-06T08:27:00.451Z,131.93
2022-12-06T08:29:27.589Z,132.88
2022-12-06T08:31:57.173Z,122.53
2022-12-06T08:34:24.313Z,120.65
2022-12-06T08:36:51.390Z,116.53
2022-12-06T08:39:18.815Z,127.97
2022-12-06T08:41:58.460Z,122.45
2022-12-06T08:44:28.010Z,129.98
2022-12-06T08:46:56.302Z,119.35
2022-12-06T08:49:25.395Z,119.07
2022-12-06T08:51:53.436Z,122.25
2022-12-06T08:54:24.366Z,118.78
2022-12-06T08:56:52.523Z,122.55
2022-12-06T08:59:20.635Z,119.05
2022-12-06T09:01:50.515Z,116.78
2022-12-06T09:04:18.021Z,117.82
2022-12-06T09:06:45.872Z,117.80
2022-12-06T09:09:17.857Z,104.63
2022-12-06T09:11:49.285Z,108.90
2022-12-06T09:14:22.054Z,112.00
2022-12-06T09:16:51.383Z,111.03
2022-12-06T09:19:24.067Z,116.05
2022-12-06T09:21:51.319Z,117.68
2022-12-06T09:24:19.778Z,111.95
2022-12-06T09:26:47.099Z,113.30
2022-12-06T09:29:18.843Z,110.95
2022-12-06T09:31:46.184Z,112.10
2022-12-06T09:34:14.130Z,111.45
2022-12-06T09:37:07.171Z,111.45
2022-12-06T09:39:40.465Z,111.35
2022-12-06T09:42:07.902Z,103.72
2022-12-06T09:45:28.703Z,107.68
2022-12-06T09:48:44.286Z,107.75
2022-12-06T09:52:08.445Z,101.53
2022-12-06T09:55:04.978Z,93.47
2022-12-06T09:57:44.193Z,90.13
2022-12-06T10:00:22.945Z,91.82
2022-12-06T10:03:46.374Z,96.40
2022-12-06T10:09:04.655Z,98.63
2022-12-06T10:11:34.603Z,96.75
2022-12-06T10:14:46.267Z,94.80
2022-12-06T10:17:30.739Z,97.20
2022-12-06T10:20:18.408Z,88.75
2022-12-06T10:23:10.754Z,95.85
2022-12-06T10:26:03.017Z,95.03
2022-12-06T10:28:54.952Z,108.65
2022-12-06T10:32:09.921Z,118.78
2022-12-06T10:34:59.922Z,114.35
2022-12-06T10:38:00.073Z,103.97
2022-12-06T10:40:46.390Z,105.78
2022-12-06T10:43:30.522Z,100.93
2022-12-06T10:46:35.791Z,98.15
2022-12-06T10:49:29.878Z,94.13
2022-12-06T10:52:21.933Z,88.82
2022-12-06T10:55:12.872Z,96.15
2022-12-06T10:57:59.270Z,93.88
2022-12-06T11:00:36.543Z,90.95
2022-12-06T11:03:27.513Z,90.38
2022-12-06T11:06:16.082Z,92.03
2022-12-06T11:08:50.824Z,96.50
2022-12-06T11:11:27.991Z,88.35
2022-12-06T11:14:03.847Z,92.18
2022-12-06T11:16:37.122Z,86.60
2022-12-06T11:19:38.792Z,89.93
2022-12-06T11:22:41.605Z,90.65
2022-12-06T11:28:44.108Z,89.20
2022-12-06T11:31:31.735Z,79.82
2022-12-06T11:34:02.372Z,90.95
2022-12-06T11:36:31.322Z,91.43
2022-12-06T11:38:59.950Z,89.40
2022-12-06T11:41:35.264Z,85.03
2022-12-06T11:44:03.699Z,91.05
2022-12-06T11:46:31.092Z,97.10
2022-12-06T11:49:17.410Z,94.97
2022-12-06T11:51:45.881Z,104.75
2022-12-06T11:54:33.871Z,95.93
2022-12-06T11:57:15.752Z,109.40
2022-12-06T12:00:15.787Z,98.07
2022-12-06T12:02:47.100Z,102.28
2022-12-06T12:05:19.810Z,100.90
2022-12-06T12:08:19.862Z,96.85
2022-12-06T12:10:58.122Z,92.20
2022-12-06T12:13:45.272Z,94.68
2022-12-06T12:16:46.801Z,92.78
2022-12-06T12:19:41.139Z,102.60
2022-12-06T12:22:42.940Z,107.15
2022-12-06T12:25:31.263Z,102.32
2022-12-06T12:28:01.408Z,80.35
2022-12-06T12:30:39.967Z,76.88
2022-12-06T12:33:07.249Z,71.78
2022-12-06T12:35:40.545Z,66.95
2022-12-06T12:38:11.782Z,66.55
2022-12-06T12:40:46.975Z,67.15
2022-12-06T12:43:15.925Z,67.85
2022-12-06T12:46:12.405Z,56.33
2022-12-06T12:48:43.129Z,62.20
2022-12-06T12:51:38.020Z,61.35
2022-12-06T12:54:28.782Z,60.90
2022-12-06T12:56:57.286Z,63.28
2022-12-06T12:59:27.927Z,58.35
2022-12-06T13:02:29.608Z,54.63
2022-12-06T13:05:32.453Z,64.07
2022-12-06T13:08:20.829Z,61.05
2022-12-06T13:10:58.498Z,64.80
2022-12-06T13:13:37.257Z,65.85
2022-12-06T13:16:16.628Z,66.20
2022-12-06T13:18:53.386Z,71.72
2022-12-06T13:21:34.620Z,73.45
2022-12-06T13:24:11.167Z,71.90
2022-12-06T13:27:10.377Z,71.55
2022-12-06T13:29:56.104Z,69.40
2022-12-06T13:32:34.853Z,77.35
2022-12-06T13:37:43.552Z,75.65
2022-12-06T13:40:33.461Z,75.97
2022-12-06T13:43:05.582Z,76.35
2022-12-06T13:45:48.447Z,71.32
2022-12-06T13:48:24.983Z,73.57
2022-12-06T13:51:00.113Z,68.88
2022-12-06T13:53:28.006Z,76.90
2022-12-06T13:56:30.352Z,76.70
2022-12-06T13:58:59.857Z,69.70
2022-12-06T14:01:46.400Z,65.15
2022-12-06T14:07:22.523Z,56.60
2022-12-06T14:09:50.841Z,56.00
2022-12-06T14:12:27.729Z,53.65
2022-12-06T14:15:03.750Z,57.50
2022-12-06T14:20:33.619Z,60.65
2022-12-06T14:23:00.709Z,63.10
2022-12-06T14:25:31.630Z,63.80
2022-12-06T14:28:13.735Z,64.20
2022-12-06T14:30:41.388Z,65.72
2022-12-06T14:33:39.318Z,66.60
2022-12-06T14:36:17.376Z,85.65
2022-12-06T14:38:53.979Z,82.22
2022-12-06T14:41:40.576Z,88.40
2022-12-06T14:44:18.895Z,96.10
2022-12-06T14:46:49.657Z,77.38
2022-12-06T14:49:39.928Z,89.07
2022-12-06T14:52:31.323Z,95.00
2022-12-06T14:55:19.572Z,89.32
2022-12-06T14:57:57.229Z,92.57
2022-12-06T15:00:38.306Z,90.13
2022-12-06T15:03:08.504Z,88.82
2022-12-06T15:05:39.819Z,96.00
2022-12-06T15:08:25.739Z,81.18
2022-12-06T15:11:03.780Z,75.80
2022-12-06T15:13:33.523Z,71.70
2022-12-06T15:16:09.834Z,78.50
2022-12-06T15:18:59.276Z,73.07
2022-12-06T15:21:26.452Z,76.88
2022-12-06T15:23:59.562Z,79.00
2022-12-06T15:26:26.628Z,93.47
2022-12-06T15:28:53.754Z,93.75
2022-12-06T15:31:28.397Z,92.45
2022-12-06T15:33:56.303Z,89.93
2022-12-06T15:36:27.828Z,95.45
2022-12-06T15:38:54.940Z,94.90
2022-12-06T15:41:27.142Z,105.32
2022-12-06T15:43:57.688Z,96.63
2022-12-06T15:46:29.868Z,86.72
2022-12-06T15:51:27.156Z,91.45
2022-12-06T15:53:57.494Z,89.82
2022-12-06T15:56:29.191Z,92.20
2022-12-06T15:58:56.484Z,91.72
2022-12-06T16:01:32.970Z,85.15
2022-12-06T16:04:00.669Z,86.25
2022-12-06T16:06:29.519Z,78.88
2022-12-06T16:08:59.797Z,72.78
2022-12-06T16:11:27.464Z,84.13
2022-12-06T16:13:54.762Z,80.60
2022-12-06T16:16:22.850Z,76.57
2022-12-06T16:18:51.160Z,74.60
2022-12-06T16:21:24.234Z,70.35
2022-12-06T16:24:14.912Z,62.03
2022-12-06T16:26:44.500Z,67.35
2022-12-06T16:29:25.292Z,70.45
2022-12-06T16:31:54.116Z,74.78
2022-12-06T16:34:21.375Z,65.07
2022-12-06T16:37:04.910Z,71.57
2022-12-06T16:39:34.150Z,75.32
2022-12-06T16:42:03.319Z,72.18
2022-12-06T16:44:30.413Z,74.95
2022-12-06T16:47:00.109Z,68.20
2022-12-06T16:49:45.759Z,65.10
2022-12-06T16:52:18.761Z,63.55
2022-12-06T16:54:48.111Z,67.15
2022-12-06T16:57:15.357Z,69.22
2022-12-06T16:59:43.178Z,64.93
2022-12-06T17:02:34.099Z,64.32
2022-12-06T17:05:06.503Z,64.80
2022-12-06T17:07:35.588Z,68.18
2022-12-06T17:10:03.181Z,67.38
2022-12-06T17:12:30.275Z,68.50
2022-12-06T17:14:59.123Z,68.72
2022-12-06T17:17:28.590Z,69.53
2022-12-06T17:19:56.401Z,75.80
2022-12-06T17:22:25.939Z,72.55
2022-12-06T17:24:53.902Z,71.40
2022-12-06T17:27:20.990Z,74.03
2022-12-06T17:29:50.074Z,74.45
2022-12-06T17:32:17.976Z,72.78
2022-12-06T17:34:45.181Z,86.18
2022-12-06T17:37:12.585Z,84.75
2022-12-06T17:39:41.941Z,77.65
2022-12-06T17:42:30.891Z,72.45
2022-12-06T17:44:58.046Z,77.50
2022-12-06T17:47:25.465Z,77.13
2022-12-06T17:49:56.453Z,77.65
2022-12-06T17:52:26.312Z,67.82
2022-12-06T17:54:53.665Z,72.80
2022-12-06T17:57:20.731Z,71.32
2022-12-06T17:59:48.636Z,70.78
2022-12-06T18:02:20.143Z,65.15
2022-12-06T18:04:48.298Z,66.35
2022-12-06T18:07:17.285Z,67.22
2022-12-06T18:09:45.282Z,63.90
2022-12-06T18:12:16.638Z,64.22
2022-12-06T18:14:45.220Z,65.37
2022-12-06T18:17:12.745Z,63.45
2022-12-06T18:19:41.006Z,66.32
2022-12-06T18:22:11.129Z,65.88
2022-12-06T18:24:38.258Z,60.88
2022-12-06T18:27:06.845Z,67.53
2022-12-06T18:29:39.022Z,64.85
2022-12-06T18:32:06.277Z,60.47
2022-12-06T18:34:35.982Z,64.07
2022-12-06T18:37:05.163Z,61.55
2022-12-06T18:39:34.414Z,68.25
2022-12-06T18:42:01.513Z,62.38
2022-12-06T18:44:28.703Z,57.22
2022-12-06T18:46:55.781Z,57.25
2022-12-06T18:49:24.222Z,64.45
2022-12-06T18:51:53.571Z,66.10
2022-12-06T18:54:21.668Z,59.05
2022-12-06T18:56:48.777Z,63.72
2022-12-06T18:59:15.926Z,59.35
2022-12-06T19:01:43.149Z,56.55
2022-12-06T19:04:16.537Z,53.33
2022-12-06T19:06:46.522Z,55.35
2022-12-06T19:09:16.051Z,56.97
2022-12-06T19:11:46.239Z,54.72
2022-12-06T19:14:14.633Z,51.28
2022-12-06T19:16:48.749Z,54.70
2022-12-06T19:19:20.695Z,55.22
2022-12-06T19:21:49.861Z,51.17
2022-12-06T19:24:23.157Z,50.00
2022-12-06T19:26:55.237Z,50.90
2022-12-06T19:29:22.310Z,51.03
2022-12-06T19:31:49.441Z,44.50
2022-12-06T19:34:21.629Z,40.90
2022-12-06T19:39:20.685Z,39.13
2022-12-06T19:42:06.664Z,38.78
2022-12-06T19:44:36.808Z,34.95
2022-12-06T19:47:04.275Z,34.88
2022-12-06T19:49:33.859Z,36.28
2022-12-06T19:52:01.519Z,33.22
2022-12-06T19:54:31.536Z,33.65
2022-12-06T19:57:03.246Z,33.45
2022-12-06T19:59:35.301Z,22.75
2022-12-06T20:02:04.216Z,31.45
2022-12-06T20:04:38.126Z,31.48
2022-12-06T20:07:05.655Z,33.90
2022-12-06T20:09:33.733Z,31.15
2022-12-06T20:12:04.096Z,31.55
2022-12-06T20:14:58.074Z,33.13
2022-12-06T20:17:25.141Z,30.80
2022-12-06T20:19:54.528Z,30.33
2022-12-06T20:22:22.854Z,31.38
2022-12-06T20:24:50.089Z,30.13
2022-12-06T20:27:18.276Z,28.23
2022-12-06T20:29:45.361Z,28.50
2022-12-06T20:32:12.594Z,30.15
2022-12-06T20:34:39.719Z,28.90
2022-12-06T20:37:07.478Z,30.45
2022-12-06T20:39:35.976Z,30.60
2022-12-06T20:42:06.110Z,33.20
2022-12-06T20:44:34.243Z,30.27
2022-12-06T20:47:03.724Z,30.15
2022-12-06T20:49:30.927Z,32.70
2022-12-06T20:51:59.914Z,33.95
2022-12-06T20:54:27.003Z,31.75
2022-12-06T20:56:54.338Z,30.77
2022-12-06T20:59:22.103Z,28.83
2022-12-06T21:01:50.056Z,29.48
2022-12-06T21:04:18.047Z,27.98
2022-12-06T21:06:47.702Z,27.95
2022-12-06T21:09:14.983Z,23.08
2022-12-06T21:11:42.326Z,26.55
2022-12-06T21:14:13.215Z,25.65
2022-12-06T21:16:51.157Z,22.58
2022-12-06T21:19:19.911Z,26.02
2022-12-06T21:21:53.359Z,23.77
2022-12-06T21:24:22.338Z,20.20
2022-12-06T21:26:49.892Z,21.92
2022-12-06T21:29:30.073Z,22.98
2022-12-06T21:32:00.905Z,22.90
2022-12-06T21:34:30.088Z,23.45
2022-12-06T21:36:57.354Z,25.55
2022-12-06T21:39:24.623Z,20.85
2022-12-06T21:41:53.182Z,22.95
2022-12-06T21:44:20.421Z,23.20
2022-12-06T21:46:54.630Z,19.98
2022-12-06T21:49:22.052Z,19.92
2022-12-06T21:51:49.347Z,20.75
2022-12-06T21:54:16.491Z,20.88
2022-12-06T21:56:43.697Z,19.67
2022-12-06T21:59:12.264Z,21.30
2022-12-06T22:01:39.514Z,22.55
2022-12-06T22:04:06.774Z,18.95
2022-12-06T22:06:36.321Z,19.75
2022-12-06T22:09:07.966Z,21.17
2022-12-06T22:11:35.490Z,20.98
2022-12-06T22:14:04.927Z,19.73
2022-12-06T22:16:32.419Z,17.15
2022-12-06T22:18:59.653Z,15.98
2022-12-06T22:21:32.462Z,18.65
2022-12-06T22:23:59.997Z,19.48
2022-12-06T22:26:29.873Z,15.77
2022-12-06T22:28:59.544Z,17.02
2022-12-06T22:31:33.513Z,17.98
2022-12-06T22:34:02.198Z,14.75
2022-12-06T22:36:30.065Z,16.13
2022-12-06T22:39:00.750Z,16.33
2022-12-06T22:41:31.957Z,17.35
2022-12-06T22:44:02.511Z,15.52
2022-12-06T22:46:31.551Z,15.32
2022-12-06T22:49:01.111Z,15.93
2022-12-06T22:51:34.438Z,15.30
2022-12-06T22:54:07.151Z,19.58
2022-12-06T22:56:36.847Z,19.60
2022-12-06T22:59:04.107Z,20.73
2022-12-06T23:01:34.724Z,17.52
2022-12-06T23:04:05.883Z,16.38
2022-12-06T23:06:34.921Z,17.15
2022-12-06T23:09:02.278Z,18.98
2022-12-06T23:11:32.390Z,19.08
2022-12-06T23:13:59.844Z,15.93
2022-12-06T23:16:31.101Z,23.30
2022-12-06T23:19:01.634Z,19.00
2022-12-06T23:21:35.469Z,19.98
2022-12-06T23:24:09.834Z,20.92
2022-12-06T23:26:41.498Z,20.70
2022-12-06T23:29:09.932Z,19.48
2022-12-06T23:31:41.138Z,22.23
2022-12-06T23:34:18.004Z,20.70
2022-12-06T23:36:48.081Z,21.70
2022-12-06T23:39:15.696Z,20.08
2022-12-06T23:41:43.046Z,19.85
2022-12-06T23:44:15.622Z,17.77
2022-12-06T23:46:46.748Z,17.58
2022-12-06T23:49:22.280Z,18.67
2022-12-06T23:51:52.545Z,17.98
2022-12-06T23:54:19.701Z,20.55
2022-12-06T23:56:49.306Z,20.05
2022-12-06T23:59:19.622Z,19.60
